createdAt,value
2018-05-11T00:00:00.924Z,79.79
2018-05-11T00:02:28.475Z,80.50
2018-05-11T00:04:56.109Z,80.34
2018-05-11T00:07:23.670Z,79.75
2018-05-11T00:09:51.230Z,79.89
2018-05-11T00:12:18.757Z,80.41
2018-05-11T00:14:46.336Z,79.78
2018-05-11T00:17:13.860Z,79.83
2018-05-11T00:19:41.394Z,79.86
2018-05-11T00:22:09.029Z,79.19
2018-05-11T00:24:36.556Z,79.97
2018-05-11T00:27:04.074Z,80.39
2018-05-11T00:29:31.724Z,79.81
2018-05-11T00:31:59.235Z,80.00
2018-05-11T00:34:26.815Z,79.29
2018-05-11T00:36:54.340Z,79.01
2018-05-11T00:39:21.871Z,79.08
2018-05-11T00:41:49.407Z,79.44
2018-05-11T00:44:16.932Z,78.48
2018-05-11T00:46:44.454Z,79.17
2018-05-11T00:49:11.979Z,79.48
2018-05-11T00:51:39.539Z,79.45
2018-05-11T00:54:07.099Z,79.23
2018-05-11T00:56:34.627Z,79.48
2018-05-11T00:59:02.151Z,78.77
2018-05-11T01:01:29.681Z,79.20
2018-05-11T01:03:57.211Z,79.79
2018-05-11T01:06:24.739Z,79.49
2018-05-11T01:08:52.349Z,78.83
2018-05-11T01:11:19.906Z,79.00
2018-05-11T01:13:47.480Z,80.01
2018-05-11T01:16:15.041Z,79.99
2018-05-11T01:18:42.597Z,80.24
2018-05-11T01:21:10.115Z,79.90
2018-05-11T01:23:37.635Z,79.12
2018-05-11T01:26:05.164Z,79.61
2018-05-11T01:28:32.716Z,79.15
2018-05-11T01:31:00.243Z,78.94
2018-05-11T01:33:27.854Z,79.16
2018-05-11T01:35:55.419Z,79.78
2018-05-11T01:38:22.945Z,79.74
2018-05-11T01:40:50.499Z,79.18
2018-05-11T01:43:18.019Z,78.91
2018-05-11T01:45:45.556Z,79.58
2018-05-11T01:48:13.079Z,78.95
2018-05-11T01:50:40.607Z,78.88
2018-05-11T01:53:08.129Z,79.02
2018-05-11T01:55:35.695Z,79.38
2018-05-11T01:58:03.219Z,79.68
2018-05-11T02:00:30.748Z,78.96
2018-05-11T02:02:58.271Z,80.04
2018-05-11T02:05:25.815Z,80.15
2018-05-11T02:07:53.376Z,79.85
2018-05-11T02:10:20.900Z,79.70
2018-05-11T02:12:48.477Z,79.70
2018-05-11T02:15:16.007Z,79.38
2018-05-11T02:17:43.580Z,79.68
2018-05-11T02:20:11.124Z,79.59
2018-05-11T02:22:38.750Z,79.21
2018-05-11T02:25:06.276Z,79.26
2018-05-11T02:27:33.794Z,79.59
2018-05-11T02:30:01.316Z,79.31
2018-05-11T02:32:28.845Z,78.80
2018-05-11T02:34:56.405Z,78.88
2018-05-11T02:37:24.008Z,79.45
2018-05-11T02:39:51.541Z,79.85
2018-05-11T02:42:19.134Z,78.50
2018-05-11T02:44:46.658Z,78.99
2018-05-11T02:47:14.235Z,79.45
2018-05-11T02:49:41.763Z,79.12
2018-05-11T02:52:09.362Z,80.21
2018-05-11T02:54:36.923Z,79.58
2018-05-11T02:57:04.486Z,80.55
2018-05-11T02:59:32.012Z,80.43
2018-05-11T03:01:59.540Z,80.63
2018-05-11T03:04:27.064Z,80.35
2018-05-11T03:06:54.593Z,80.05
2018-05-11T03:09:22.113Z,80.89
2018-05-11T03:11:49.740Z,80.29
2018-05-11T03:14:17.306Z,80.48
2018-05-11T03:16:44.833Z,80.54
2018-05-11T03:19:12.388Z,81.13
2018-05-11T03:21:39.923Z,81.51
2018-05-11T03:24:07.443Z,81.08
2018-05-11T03:26:35.003Z,81.04
2018-05-11T03:29:02.524Z,80.92
2018-05-11T03:31:30.107Z,80.52
2018-05-11T03:33:57.622Z,81.38
2018-05-11T03:36:25.245Z,81.27
2018-05-11T03:38:52.787Z,80.69
2018-05-11T03:41:20.299Z,80.76
2018-05-11T03:43:47.843Z,81.56
2018-05-11T03:46:15.468Z,80.74
2018-05-11T03:48:43.001Z,81.27
2018-05-11T03:51:10.560Z,81.19
2018-05-11T03:53:38.120Z,81.59
2018-05-11T03:56:05.657Z,81.33
2018-05-11T03:58:33.182Z,81.08
2018-05-11T04:01:00.734Z,80.12
2018-05-11T04:03:40.309Z,80.40
2018-05-11T04:06:08.860Z,80.74
2018-05-11T04:08:41.948Z,80.86
2018-05-11T04:11:09.467Z,80.89
2018-05-11T04:13:37.000Z,80.21
2018-05-11T04:16:04.600Z,80.83
2018-05-11T04:18:32.124Z,80.28
2018-05-11T04:20:59.651Z,80.47
2018-05-11T04:23:27.196Z,80.64
2018-05-11T04:25:54.771Z,80.64
2018-05-11T04:28:22.298Z,80.82
2018-05-11T04:30:49.886Z,80.58
2018-05-11T04:33:17.415Z,80.87
2018-05-11T04:35:44.939Z,80.58
2018-05-11T04:38:12.571Z,80.76
2018-05-11T04:40:40.099Z,80.02
2018-05-11T04:43:07.692Z,79.91
2018-05-11T04:45:35.216Z,80.68
2018-05-11T04:48:02.794Z,80.71
2018-05-11T04:50:30.376Z,80.76
2018-05-11T04:52:57.926Z,80.60
2018-05-11T04:55:25.445Z,80.45
2018-05-11T04:57:52.989Z,80.25
2018-05-11T05:00:20.601Z,79.89
2018-05-11T05:02:48.128Z,80.23
2018-05-11T05:05:15.656Z,79.91
2018-05-11T05:07:43.183Z,80.52
2018-05-11T05:10:10.737Z,79.86
2018-05-11T05:12:38.263Z,79.87
2018-05-11T05:15:05.868Z,79.80
2018-05-11T05:17:33.400Z,79.46
2018-05-11T05:20:00.987Z,79.32
2018-05-11T05:22:28.536Z,79.57
2018-05-11T05:24:56.107Z,79.45
2018-05-11T05:27:23.630Z,79.58
2018-05-11T05:29:51.232Z,79.70
2018-05-11T05:32:18.765Z,79.56
2018-05-11T05:34:46.302Z,79.07
2018-05-11T05:37:13.830Z,80.03
2018-05-11T05:39:41.454Z,79.56
2018-05-11T05:42:09.027Z,79.98
2018-05-11T05:44:36.573Z,79.71
2018-05-11T05:47:04.147Z,79.71
2018-05-11T05:49:31.707Z,79.40
2018-05-11T05:51:59.266Z,79.31
2018-05-11T05:54:26.783Z,78.98
2018-05-11T05:56:54.316Z,79.88
2018-05-11T05:59:21.934Z,79.26
2018-05-11T06:01:49.464Z,79.44
2018-05-11T06:04:17.000Z,79.57
2018-05-11T06:06:44.550Z,79.51
2018-05-11T06:09:12.186Z,79.76
2018-05-11T06:11:39.731Z,79.29
2018-05-11T06:14:07.272Z,79.03
2018-05-11T06:16:34.866Z,78.67
2018-05-11T06:19:02.390Z,79.83
2018-05-11T06:21:29.987Z,79.17
2018-05-11T06:23:57.511Z,79.42
2018-05-11T06:26:25.039Z,79.28
2018-05-11T06:28:52.565Z,78.79
2018-05-11T06:31:20.093Z,78.93
2018-05-11T06:33:47.684Z,79.35
2018-05-11T06:36:15.279Z,78.72
2018-05-11T06:38:42.911Z,78.66
2018-05-11T06:41:10.468Z,78.29
2018-05-11T06:43:38.011Z,78.92
2018-05-11T06:46:05.654Z,78.63
2018-05-11T06:48:33.112Z,78.16
2018-05-11T06:51:00.632Z,78.61
2018-05-11T06:53:28.167Z,78.57
2018-05-11T06:55:55.766Z,78.44
2018-05-11T06:58:23.284Z,78.19
2018-05-11T07:00:50.829Z,78.40
2018-05-11T07:03:18.356Z,78.05
2018-05-11T07:05:45.969Z,77.91
2018-05-11T07:08:13.510Z,77.72
2018-05-11T07:10:41.114Z,77.80
2018-05-11T07:13:08.627Z,78.00
2018-05-11T07:15:36.157Z,77.68
2018-05-11T07:18:03.683Z,77.36
2018-05-11T07:20:31.269Z,77.23
2018-05-11T07:22:58.809Z,77.31
2018-05-11T07:25:26.341Z,77.48
2018-05-11T07:27:53.907Z,77.33
2018-05-11T07:30:21.444Z,77.41
2018-05-11T07:32:48.974Z,77.13
2018-05-11T07:35:16.505Z,77.22
2018-05-11T07:37:44.036Z,76.99
2018-05-11T07:40:11.571Z,76.91
2018-05-11T07:42:39.113Z,76.58
2018-05-11T07:45:06.663Z,76.54
2018-05-11T07:47:34.192Z,76.42
2018-05-11T07:50:01.718Z,76.72
2018-05-11T07:52:29.266Z,76.53
2018-05-11T07:54:56.804Z,76.47
2018-05-11T07:57:24.351Z,76.17
2018-05-11T07:59:51.881Z,76.40
2018-05-11T08:02:19.484Z,76.27
2018-05-11T08:04:47.045Z,75.89
2018-05-11T08:07:14.579Z,76.05
2018-05-11T08:09:42.125Z,75.86
2018-05-11T08:12:09.655Z,75.79
2018-05-11T08:14:37.199Z,75.69
2018-05-11T08:17:04.783Z,75.48
2018-05-11T08:19:32.339Z,75.42
2018-05-11T08:21:59.885Z,75.33
2018-05-11T08:24:27.440Z,75.17
2018-05-11T08:26:55.085Z,75.14
2018-05-11T08:29:22.525Z,75.30
2018-05-11T08:31:50.181Z,75.05
2018-05-11T08:34:17.761Z,74.35
2018-05-11T08:36:45.321Z,74.58
2018-05-11T08:39:12.868Z,74.23
2018-05-11T08:41:40.397Z,74.19
2018-05-11T08:44:07.927Z,73.88
2018-05-11T08:46:35.504Z,73.91
2018-05-11T08:49:03.062Z,74.03
2018-05-11T08:51:30.609Z,73.99
2018-05-11T08:53:58.125Z,73.77
2018-05-11T08:56:25.640Z,73.65
2018-05-11T08:58:53.183Z,73.77
2018-05-11T09:01:20.704Z,73.94
2018-05-11T09:03:48.248Z,73.86
2018-05-11T09:06:15.816Z,73.72
2018-05-11T09:08:43.366Z,73.76
2018-05-11T09:11:10.915Z,73.94
2018-05-11T09:13:38.489Z,73.65
2018-05-11T09:16:06.016Z,73.61
2018-05-11T09:18:33.556Z,73.60
2018-05-11T09:21:01.090Z,73.07
2018-05-11T09:23:28.670Z,73.10
2018-05-11T09:25:56.196Z,73.08
2018-05-11T09:28:23.730Z,73.51
2018-05-11T09:30:51.261Z,73.20
2018-05-11T09:33:18.786Z,73.18
2018-05-11T09:35:46.337Z,73.00
2018-05-11T09:38:13.887Z,72.83
2018-05-11T09:40:41.412Z,72.95
2018-05-11T09:43:08.951Z,72.94
2018-05-11T09:45:36.482Z,72.93
2018-05-11T09:48:04.013Z,72.50
2018-05-11T09:50:31.547Z,72.48
2018-05-11T09:52:59.092Z,72.27
2018-05-11T09:55:26.625Z,72.30
2018-05-11T09:57:54.155Z,72.04
2018-05-11T10:00:26.541Z,71.55
2018-05-11T10:02:54.177Z,71.72
2018-05-11T10:05:21.718Z,71.29
2018-05-11T10:07:49.321Z,71.37
2018-05-11T10:10:16.836Z,71.46
2018-05-11T10:12:44.382Z,71.20
2018-05-11T10:15:11.916Z,71.41
2018-05-11T10:17:39.445Z,70.95
2018-05-11T10:20:06.977Z,70.74
2018-05-11T10:22:34.564Z,70.35
2018-05-11T10:25:02.137Z,70.00
2018-05-11T10:27:29.689Z,69.80
2018-05-11T10:29:57.261Z,69.40
2018-05-11T10:32:24.825Z,69.13
2018-05-11T10:34:52.371Z,69.61
2018-05-11T10:37:19.914Z,69.09
2018-05-11T10:39:47.522Z,69.18
2018-05-11T10:42:15.068Z,69.23
2018-05-11T10:44:42.630Z,69.21
2018-05-11T10:47:10.159Z,69.37
2018-05-11T10:49:37.675Z,69.28
2018-05-11T10:52:05.208Z,68.97
2018-05-11T10:54:32.727Z,68.73
2018-05-11T10:57:00.276Z,69.40
2018-05-11T10:59:27.812Z,70.07
2018-05-11T11:01:55.581Z,69.15
2018-05-11T11:04:23.240Z,68.85
2018-05-11T11:06:50.800Z,68.79
2018-05-11T11:09:18.364Z,68.54
2018-05-11T11:11:45.923Z,68.45
2018-05-11T11:14:13.448Z,68.26
2018-05-11T11:16:41.075Z,68.55
2018-05-11T11:19:08.763Z,67.84
2018-05-11T11:21:36.444Z,68.50
2018-05-11T11:24:03.999Z,68.11
2018-05-11T11:26:31.556Z,68.13
2018-05-11T11:28:59.088Z,68.22
2018-05-11T11:31:26.627Z,67.90
2018-05-11T11:33:54.208Z,68.08
2018-05-11T11:36:21.915Z,68.01
2018-05-11T11:38:49.595Z,67.96
2018-05-11T11:41:17.160Z,67.45
2018-05-11T11:43:44.716Z,67.73
2018-05-11T11:46:12.291Z,67.75
2018-05-11T11:48:39.868Z,67.58
2018-05-11T11:51:07.407Z,67.49
2018-05-11T11:53:34.950Z,67.53
2018-05-11T11:56:02.485Z,67.69
2018-05-11T11:58:30.111Z,67.80
2018-05-11T12:00:57.639Z,67.90
2018-05-11T12:03:25.202Z,67.61
2018-05-11T12:05:52.735Z,67.43
2018-05-11T12:08:20.317Z,67.64
2018-05-11T12:10:47.837Z,67.51
2018-05-11T12:13:15.370Z,67.36
2018-05-11T12:15:42.891Z,67.28
2018-05-11T12:18:10.452Z,67.28
2018-05-11T12:20:38.009Z,67.49
2018-05-11T12:23:05.749Z,66.92
2018-05-11T12:25:33.416Z,67.17
2018-05-11T12:28:00.965Z,67.12
2018-05-11T12:30:28.524Z,67.20
2018-05-11T12:32:56.049Z,66.99
2018-05-11T12:35:23.586Z,67.37
2018-05-11T12:37:51.206Z,67.42
2018-05-11T12:40:18.733Z,67.79
2018-05-11T12:42:46.258Z,67.82
2018-05-11T12:45:13.820Z,68.52
2018-05-11T12:47:41.465Z,68.45
2018-05-11T12:50:09.108Z,68.73
2018-05-11T12:52:36.664Z,69.08
2018-05-11T12:55:04.225Z,68.10
2018-05-11T12:57:31.739Z,67.91
2018-05-11T12:59:59.295Z,67.75
2018-05-11T13:02:26.823Z,67.51
2018-05-11T13:04:54.488Z,67.47
2018-05-11T13:07:22.023Z,67.74
2018-05-11T13:09:49.557Z,67.41
2018-05-11T13:12:17.082Z,67.47
2018-05-11T13:14:44.706Z,67.85
2018-05-11T13:17:12.275Z,67.40
2018-05-11T13:19:39.834Z,67.62
2018-05-11T13:22:07.353Z,67.72
2018-05-11T13:24:34.885Z,68.16
2018-05-11T13:27:02.408Z,68.23
2018-05-11T13:29:30.002Z,67.87
2018-05-11T13:31:57.619Z,67.95
2018-05-11T13:34:25.196Z,68.42
2018-05-11T13:36:52.771Z,67.89
2018-05-11T13:39:20.304Z,68.01
2018-05-11T13:41:47.833Z,67.69
2018-05-11T13:44:15.351Z,67.55
2018-05-11T13:46:42.903Z,67.67
2018-05-11T13:49:10.480Z,68.07
2018-05-11T13:51:38.016Z,67.82
2018-05-11T13:54:05.559Z,67.55
2018-05-11T13:56:33.135Z,67.64
2018-05-11T13:59:00.650Z,67.26
2018-05-11T14:01:28.217Z,67.44
2018-05-11T14:03:55.773Z,67.31
2018-05-11T14:06:23.310Z,67.24
2018-05-11T14:08:50.846Z,67.13
2018-05-11T14:11:18.377Z,67.03
2018-05-11T14:13:45.904Z,66.98
2018-05-11T14:16:13.451Z,67.01
2018-05-11T14:18:41.029Z,67.17
2018-05-11T14:21:08.569Z,67.16
2018-05-11T14:23:36.105Z,67.17
2018-05-11T14:26:03.636Z,67.06
2018-05-11T14:28:31.173Z,67.22
2018-05-11T14:30:58.692Z,67.01
2018-05-11T14:33:26.251Z,67.09
2018-05-11T14:35:53.804Z,66.88
2018-05-11T14:38:21.339Z,67.19
2018-05-11T14:40:48.869Z,67.02
2018-05-11T14:43:16.388Z,67.10
2018-05-11T14:45:43.905Z,66.90
2018-05-11T14:48:11.425Z,67.46
2018-05-11T14:50:38.977Z,68.47
2018-05-11T14:53:06.557Z,67.82
2018-05-11T14:55:34.102Z,67.80
2018-05-11T14:58:01.655Z,67.93
2018-05-11T15:00:29.192Z,67.23
2018-05-11T15:02:56.723Z,67.32
2018-05-11T15:05:24.253Z,67.70
2018-05-11T15:07:51.813Z,67.39
2018-05-11T15:10:19.399Z,67.44
2018-05-11T15:12:46.981Z,66.86
2018-05-11T15:15:14.509Z,67.23
2018-05-11T15:17:42.062Z,67.34
2018-05-11T15:20:09.621Z,67.62
2018-05-11T15:22:37.176Z,67.41
2018-05-11T15:25:04.695Z,68.09
2018-05-11T15:27:32.217Z,68.65
2018-05-11T15:29:59.751Z,68.09
2018-05-11T15:32:27.290Z,68.06
2018-05-11T15:34:54.810Z,68.71
2018-05-11T15:37:22.338Z,68.20
2018-05-11T15:39:50.036Z,68.40
2018-05-11T15:42:17.582Z,68.57
2018-05-11T15:44:45.442Z,68.67
2018-05-11T15:47:12.977Z,68.83
2018-05-11T15:49:40.538Z,68.82
2018-05-11T15:52:08.069Z,68.66
2018-05-11T15:54:35.663Z,68.83
2018-05-11T15:57:03.187Z,68.92
2018-05-11T15:59:30.703Z,68.67
2018-05-11T16:01:58.236Z,68.75
2018-05-11T16:04:25.783Z,68.60
2018-05-11T16:06:53.359Z,69.60
2018-05-11T16:09:20.926Z,69.42
2018-05-11T16:11:48.450Z,68.94
2018-05-11T16:14:16.567Z,69.13
2018-05-11T16:16:44.097Z,69.73
2018-05-11T16:19:11.612Z,69.02
2018-05-11T16:21:39.150Z,69.81
2018-05-11T16:24:06.684Z,70.04
2018-05-11T16:26:34.248Z,69.55
2018-05-11T16:29:01.768Z,69.14
2018-05-11T16:31:29.369Z,69.77
2018-05-11T16:33:56.917Z,69.60
2018-05-11T16:36:24.622Z,69.31
2018-05-11T16:38:52.310Z,69.57
2018-05-11T16:41:20.898Z,69.48
2018-05-11T16:43:48.429Z,69.22
2018-05-11T16:46:15.960Z,69.17
2018-05-11T16:48:43.505Z,69.19
2018-05-11T16:51:11.032Z,69.15
2018-05-11T16:53:38.622Z,69.15
2018-05-11T16:56:06.209Z,69.36
2018-05-11T16:58:33.740Z,69.58
2018-05-11T17:01:01.330Z,69.47
2018-05-11T17:03:28.976Z,69.96
2018-05-11T17:05:56.551Z,70.23
2018-05-11T17:08:24.075Z,69.85
2018-05-11T17:10:51.608Z,70.21
2018-05-11T17:13:19.155Z,70.07
2018-05-11T17:15:46.689Z,69.87
2018-05-11T17:18:14.216Z,70.16
2018-05-11T17:20:41.743Z,69.86
2018-05-11T17:23:09.272Z,69.60
2018-05-11T17:25:36.812Z,70.42
2018-05-11T17:28:04.365Z,70.78
2018-05-11T17:30:31.888Z,70.25
2018-05-11T17:32:59.547Z,70.57
2018-05-11T17:35:27.183Z,70.24
2018-05-11T17:37:54.703Z,70.55
2018-05-11T17:40:22.236Z,70.10
2018-05-11T17:42:49.778Z,70.48
2018-05-11T17:45:17.305Z,70.48
2018-05-11T17:47:44.847Z,70.99
2018-05-11T17:50:12.384Z,70.19
2018-05-11T17:52:39.912Z,70.95
2018-05-11T17:55:07.436Z,70.92
2018-05-11T17:57:34.958Z,70.90
2018-05-11T18:00:02.479Z,70.62
2018-05-11T18:02:29.998Z,70.70
2018-05-11T18:04:57.525Z,70.16
2018-05-11T18:07:25.040Z,70.07
2018-05-11T18:09:52.567Z,70.54
2018-05-11T18:12:20.091Z,70.35
2018-05-11T18:14:47.639Z,70.62
2018-05-11T18:17:15.173Z,71.63
2018-05-11T18:19:42.974Z,70.86
2018-05-11T18:22:10.530Z,70.83
2018-05-11T18:24:38.179Z,70.89
2018-05-11T18:27:05.925Z,71.32
2018-05-11T18:29:33.487Z,71.27
2018-05-11T18:32:01.003Z,70.87
2018-05-11T18:34:28.532Z,70.29
2018-05-11T18:36:56.043Z,69.92
2018-05-11T18:39:23.558Z,70.36
2018-05-11T18:41:51.076Z,70.17
2018-05-11T18:44:18.591Z,70.90
2018-05-11T18:46:46.126Z,71.24
2018-05-11T18:49:13.649Z,71.41
2018-05-11T18:51:41.335Z,70.93
2018-05-11T18:54:09.132Z,71.28
2018-05-11T18:56:36.542Z,71.86
2018-05-11T18:59:04.101Z,70.77
2018-05-11T19:01:31.668Z,71.32
2018-05-11T19:03:59.222Z,72.38
2018-05-11T19:06:26.746Z,72.35
2018-05-11T19:08:54.269Z,73.21
2018-05-11T19:11:21.809Z,71.61
2018-05-11T19:13:49.324Z,71.43
2018-05-11T19:16:16.840Z,72.67
2018-05-11T19:18:44.373Z,73.48
2018-05-11T19:21:11.888Z,72.76
2018-05-11T19:23:39.452Z,72.69
2018-05-11T19:26:07.060Z,73.97
2018-05-11T19:28:34.674Z,74.53
2018-05-11T19:31:02.252Z,73.77
2018-05-11T19:33:29.838Z,73.26
2018-05-11T19:35:57.428Z,74.97
2018-05-11T19:38:24.960Z,74.46
2018-05-11T19:40:52.485Z,75.44
2018-05-11T19:43:20.003Z,74.59
2018-05-11T19:45:47.532Z,74.21
2018-05-11T19:48:15.064Z,75.33
2018-05-11T19:50:42.584Z,75.79
2018-05-11T19:53:10.108Z,75.35
2018-05-11T19:55:37.645Z,76.11
2018-05-11T19:58:05.204Z,75.92
2018-05-11T20:00:32.719Z,74.81
2018-05-11T20:03:00.248Z,75.98
2018-05-11T20:05:27.776Z,75.72
2018-05-11T20:07:55.311Z,75.31
2018-05-11T20:10:22.839Z,75.24
2018-05-11T20:12:50.361Z,76.53
2018-05-11T20:15:17.884Z,77.07
2018-05-11T20:17:45.420Z,76.77
2018-05-11T20:20:12.948Z,77.58
2018-05-11T20:22:40.476Z,76.63
2018-05-11T20:25:08.014Z,76.75
2018-05-11T20:27:35.569Z,77.39
2018-05-11T20:30:03.103Z,77.75
2018-05-11T20:32:30.633Z,78.02
2018-05-11T20:34:58.243Z,78.11
2018-05-11T20:37:25.708Z,77.19
2018-05-11T20:39:53.242Z,77.28
2018-05-11T20:42:20.766Z,77.12
2018-05-11T20:44:48.298Z,76.55
2018-05-11T20:47:15.845Z,76.82
2018-05-11T20:49:43.412Z,76.94
2018-05-11T20:52:10.940Z,78.82
2018-05-11T20:54:38.477Z,79.48
2018-05-11T20:57:06.010Z,78.00
2018-05-11T20:59:33.549Z,78.56
2018-05-11T21:02:01.072Z,77.08
2018-05-11T21:04:28.607Z,77.15
2018-05-11T21:06:56.128Z,77.09
2018-05-11T21:09:23.656Z,77.32
2018-05-11T21:11:51.177Z,76.42
2018-05-11T21:14:18.703Z,75.98
2018-05-11T21:16:46.252Z,76.61
2018-05-11T21:19:13.785Z,76.26
2018-05-11T21:21:41.350Z,76.17
2018-05-11T21:24:08.877Z,76.28
2018-05-11T21:26:36.390Z,76.88
2018-05-11T21:29:06.185Z,76.41
2018-05-11T21:31:34.006Z,76.25
2018-05-11T21:34:01.927Z,76.29
2018-05-11T21:36:29.661Z,76.37
2018-05-11T21:38:57.217Z,77.00
2018-05-11T21:41:24.769Z,76.39
2018-05-11T21:43:52.327Z,77.06
2018-05-11T21:46:19.854Z,76.24
2018-05-11T21:48:47.393Z,76.47
2018-05-11T21:51:14.938Z,76.55
2018-05-11T21:53:42.465Z,76.87
2018-05-11T21:56:09.984Z,77.21
2018-05-11T21:58:37.509Z,76.77
2018-05-11T22:01:05.046Z,76.84
2018-05-11T22:03:32.570Z,76.88
2018-05-11T22:06:00.318Z,77.34
2018-05-11T22:08:27.810Z,76.87
2018-05-11T22:10:55.335Z,77.21
2018-05-11T22:13:22.890Z,77.12
2018-05-11T22:15:50.420Z,76.82
2018-05-11T22:18:17.971Z,77.71
2018-05-11T22:20:45.520Z,78.04
2018-05-11T22:23:13.060Z,77.35
2018-05-11T22:25:40.600Z,77.51
2018-05-11T22:28:08.180Z,77.47
2018-05-11T22:30:35.724Z,77.48
2018-05-11T22:33:03.261Z,77.57
2018-05-11T22:35:30.807Z,77.39
2018-05-11T22:37:58.344Z,77.37
2018-05-11T22:40:25.927Z,78.46
2018-05-11T22:42:53.455Z,78.22
2018-05-11T22:45:21.008Z,78.48
2018-05-11T22:47:48.541Z,78.37
2018-05-11T22:50:16.140Z,78.18
2018-05-11T22:52:43.674Z,78.43
2018-05-11T22:55:11.211Z,78.34
2018-05-11T22:57:38.749Z,79.23
2018-05-11T23:00:06.272Z,78.94
2018-05-11T23:02:33.796Z,79.02
2018-05-11T23:05:01.327Z,78.37
2018-05-11T23:07:28.853Z,78.86
2018-05-11T23:09:56.405Z,79.22
2018-05-11T23:12:23.936Z,78.40
2018-05-11T23:14:51.464Z,78.21
2018-05-11T23:17:18.981Z,79.16
2018-05-11T23:19:46.504Z,79.06
2018-05-11T23:22:14.039Z,78.95
2018-05-11T23:24:41.574Z,78.73
2018-05-11T23:27:09.098Z,79.09
2018-05-11T23:29:36.635Z,78.58
2018-05-11T23:32:04.184Z,78.86
2018-05-11T23:34:31.708Z,78.71
2018-05-11T23:36:59.235Z,79.03
2018-05-11T23:39:26.768Z,78.97
2018-05-11T23:41:54.288Z,78.84
2018-05-11T23:44:21.814Z,78.76
2018-05-11T23:46:49.348Z,79.10
2018-05-11T23:49:16.909Z,78.84
2018-05-11T23:51:44.441Z,78.59
2018-05-11T23:54:11.965Z,79.32
2018-05-11T23:56:39.495Z,79.28
2018-05-11T23:59:07.026Z,79.60
